Time;durP1;ratioP1;P1;durP2;ratioP2;P2;SDS_P1;SDS_P2;PMS_P1;PMS_P2;Temp;Humidity;BMP_temperature;BMP_pressure;BME280_temperature;BME280_humidity;BME280_pressure;Samples;Min_cycle;Max_cycle;Signal;HPM_P1;HPM_P2
2021/11/12 00:02:08;;;;;;;13.63;10.63;;;12.30;75.00;;;;;;5053025;28;20108;-79
2021/11/12 00:14:24;;;;;;;13.80;10.25;;;12.20;75.00;;;;;;5055412;28;20022;-78
2021/11/12 00:16:51;;;;;;;11.75;9.75;;;12.20;75.00;;;;;;5073386;28;20029;-78
2021/11/12 00:19:18;;;;;;;12.90;10.07;;;12.20;75.00;;;;;;5071494;28;20029;-80
2021/11/12 00:21:45;;;;;;;13.07;10.15;;;12.20;75.00;;;;;;5038203;28;20055;-78
2021/11/12 00:24:11;;;;;;;12.93;10.40;;;12.20;75.00;;;;;;5071675;28;20032;-78
2021/11/12 00:26:37;;;;;;;11.32;9.25;;;12.30;75.10;;;;;;5038152;28;20021;-77
2021/11/12 00:29:04;;;;;;;13.07;10.43;;;12.20;75.00;;;;;;5054636;28;20064;-77
2021/11/12 00:31:42;;;;;;;12.65;9.45;;;12.20;75.00;;;;;;5055009;28;20029;-78
2021/11/12 00:37:05;;;;;;;12.57;9.90;;;12.20;75.00;;;;;;5057200;28;20136;-78
2021/11/12 00:39:38;;;;;;;12.98;9.88;;;12.20;75.00;;;;;;5055509;28;20377;-78
2021/11/12 00:44:52;;;;;;;13.98;9.77;;;12.20;75.00;;;;;;5057922;28;20064;-78
2021/11/12 00:49:47;;;;;;;12.23;9.98;;;12.20;75.00;;;;;;5054550;28;20104;-79
2021/11/12 00:52:17;;;;;;;13.10;10.15;;;12.20;75.00;;;;;;5054110;28;20037;-78
2021/11/12 00:54:43;;;;;;;12.98;10.15;;;12.20;75.00;;;;;;5053929;28;20397;-78
2021/11/12 00:57:10;;;;;;;13.82;10.07;;;12.20;75.00;;;;;;5053737;28;20030;-78
2021/11/12 00:59:36;;;;;;;13.02;9.65;;;12.20;75.00;;;;;;5054208;28;20116;-79
2021/11/12 01:02:02;;;;;;;12.38;9.77;;;12.20;75.00;;;;;;5054153;28;20079;-78
2021/11/12 01:04:28;;;;;;;13.13;10.00;;;12.20;75.00;;;;;;5053950;28;20040;-78
2021/11/12 01:06:53;;;;;;;12.48;9.93;;;12.20;75.00;;;;;;5036743;28;20025;-79
2021/11/12 01:09:21;;;;;;;12.63;10.25;;;12.20;75.00;;;;;;5054034;28;20033;-78
2021/11/12 01:11:49;;;;;;;12.43;9.82;;;12.20;75.00;;;;;;5070572;28;20021;-78
2021/11/12 01:14:24;;;;;;;13.60;10.55;;;12.20;75.00;;;;;;5037643;28;20033;-78
2021/11/12 01:16:51;;;;;;;12.10;9.35;;;12.20;75.00;;;;;;5087186;28;20045;-78
2021/11/12 01:19:17;;;;;;;12.00;9.90;;;12.20;75.00;;;;;;5053298;28;20082;-78
2021/11/12 01:21:44;;;;;;;13.45;10.00;;;12.20;75.00;;;;;;5037012;28;20032;-78
2021/11/12 01:24:10;;;;;;;12.75;9.85;;;12.20;75.00;;;;;;5070107;28;20064;-78
2021/11/12 01:26:36;;;;;;;14.13;10.73;;;12.20;75.00;;;;;;5036848;28;20043;-78
2021/11/12 01:29:03;;;;;;;13.10;11.05;;;12.20;75.00;;;;;;5069881;28;20541;-79
2021/11/12 01:31:30;;;;;;;12.32;9.98;;;12.20;75.00;;;;;;5070377;28;20067;-79
2021/11/12 01:34:01;;;;;;;12.57;9.98;;;12.20;75.00;;;;;;5053692;28;20032;-79
2021/11/12 01:36:33;;;;;;;11.63;9.20;;;12.20;75.00;;;;;;5069964;28;20025;-79
2021/11/12 01:39:04;;;;;;;11.55;9.60;;;12.20;75.00;;;;;;5037031;28;20393;-78
2021/11/12 01:41:31;;;;;;;13.48;10.48;;;12.20;75.00;;;;;;5053733;28;20037;-79
2021/11/12 01:44:00;;;;;;;12.98;10.27;;;12.20;75.00;;;;;;5053743;28;20044;-78
2021/11/12 01:46:31;;;;;;;12.93;10.32;;;12.20;75.10;;;;;;5053792;28;20358;-79
2021/11/12 01:57:10;;;;;;;12.32;9.55;;;12.10;74.90;;;;;;5053245;28;20411;-78
2021/11/12 01:59:15;;;;;;;12.15;10.02;;;12.20;75.10;;;;;;5053579;28;20036;-79
2021/11/12 02:01:47;;;;;;;11.73;9.15;;;12.20;75.10;;;;;;5053359;28;20115;-78
2021/11/12 02:04:16;;;;;;;12.93;9.65;;;12.20;75.10;;;;;;5053190;28;20056;-79
2021/11/12 02:06:42;;;;;;;13.25;10.32;;;12.20;75.10;;;;;;5052699;28;20025;-79
2021/11/12 02:09:17;;;;;;;12.80;9.95;;;12.20;75.10;;;;;;5054075;28;20025;-79
2021/11/12 02:11:46;;;;;;;12.80;9.82;;;12.20;75.10;;;;;;5053390;28;20025;-79
2021/11/12 02:14:14;;;;;;;11.65;9.75;;;12.10;75.10;;;;;;5053553;28;20033;-78
2021/11/12 02:16:47;;;;;;;12.15;9.75;;;12.20;75.10;;;;;;5054001;28;20036;-78
2021/11/12 02:19:14;;;;;;;14.15;10.65;;;12.20;75.10;;;;;;5053291;28;20083;-79
2021/11/12 02:21:50;;;;;;;14.80;10.40;;;12.20;75.10;;;;;;5069036;28;20116;-79
2021/11/12 02:24:16;;;;;;;13.35;10.00;;;12.10;75.10;;;;;;5036929;28;20035;-78
2021/11/12 02:26:45;;;;;;;13.05;10.00;;;12.10;75.10;;;;;;5052533;28;20140;-79
2021/11/12 02:29:12;;;;;;;13.80;10.55;;;12.10;75.10;;;;;;5052610;28;20053;-79
2021/11/12 02:31:39;;;;;;;12.80;10.68;;;12.10;75.10;;;;;;5085786;28;20079;-79
2021/11/12 02:34:08;;;;;;;13.18;10.20;;;12.10;75.10;;;;;;5051872;28;20087;-78
2021/11/12 02:36:35;;;;;;;14.63;10.20;;;12.10;75.10;;;;;;5052166;28;20040;-80
2021/11/12 02:39:02;;;;;;;12.73;10.70;;;12.10;75.00;;;;;;5068920;28;20416;-79
2021/11/12 02:41:28;;;;;;;14.93;11.07;;;12.10;75.10;;;;;;5036428;28;20112;-79
2021/11/12 02:43:54;;;;;;;14.75;11.07;;;12.10;75.10;;;;;;5019536;28;20116;-79
2021/11/12 02:46:23;;;;;;;12.13;9.82;;;12.10;75.10;;;;;;5052623;28;20078;-79
2021/11/12 02:48:50;;;;;;;14.18;10.75;;;12.10;75.00;;;;;;5051888;28;20022;-78
2021/11/12 02:51:22;;;;;;;14.90;10.75;;;12.10;75.00;;;;;;5051817;28;20033;-79
2021/11/12 02:53:49;;;;;;;14.05;10.68;;;12.10;75.10;;;;;;5085505;28;20147;-79
2021/11/12 02:56:27;;;;;;;15.68;11.23;;;12.10;75.00;;;;;;5053085;28;20025;-79
2021/11/12 02:58:57;;;;;;;13.77;10.95;;;12.10;75.10;;;;;;5037415;28;20037;-78
2021/11/12 03:01:25;;;;;;;14.73;11.05;;;12.10;75.10;;;;;;5052769;28;20135;-79
2021/11/12 03:03:52;;;;;;;13.80;10.90;;;12.10;75.00;;;;;;5051737;28;20025;-79
2021/11/12 03:06:19;;;;;;;13.75;10.43;;;12.10;75.10;;;;;;5069854;28;20036;-79
2021/11/12 03:08:46;;;;;;;15.43;11.13;;;12.10;75.10;;;;;;5035829;28;20112;-79
2021/11/12 03:11:12;;;;;;;14.00;11.13;;;12.10;75.00;;;;;;5052153;28;20512;-78
2021/11/12 03:13:39;;;;;;;14.77;11.25;;;12.10;75.10;;;;;;5051668;28;20086;-78
2021/11/12 03:16:05;;;;;;;15.20;10.85;;;12.00;75.00;;;;;;5052237;28;20473;-79
2021/11/12 03:18:32;;;;;;;13.65;10.57;;;12.00;75.00;;;;;;5068666;28;20418;-79
2021/11/12 03:21:01;;;;;;;14.73;11.65;;;12.00;75.00;;;;;;5052003;28;20462;-78
2021/11/12 03:23:33;;;;;;;15.82;11.50;;;12.00;75.00;;;;;;5053096;28;20033;-78
2021/11/12 03:29:12;;;;;;;13.52;10.27;;;12.00;75.00;;;;;;5052438;28;20076;-78
2021/11/12 04:06:46;;;;;;;14.55;11.35;;;11.80;75.00;;;;;;5055502;28;20044;-78
2021/11/12 04:17:35;;;;;;;15.02;11.82;;;11.80;75.00;;;;;;5056405;28;20021;-78
2021/11/12 05:25:54;;;;;;;15.43;11.00;;;11.40;74.60;;;;;;5054933;28;20032;-78
2021/11/12 05:44:02;;;;;;;12.75;9.98;;;11.20;74.80;;;;;;5053877;28;20048;-77
2021/11/12 05:57:15;;;;;;;12.25;9.13;;;11.10;74.40;;;;;;5053501;28;20033;-78
2021/11/12 05:59:42;;;;;;;11.23;9.30;;;11.10;74.40;;;;;;5053164;28;20398;-77
2021/11/12 06:02:08;;;;;;;11.70;9.45;;;11.00;74.40;;;;;;5053114;28;20553;-78
2021/11/12 06:04:34;;;;;;;11.57;9.50;;;11.00;74.50;;;;;;5054440;28;20052;-78
2021/11/12 06:07:00;;;;;;;11.98;9.55;;;11.00;74.40;;;;;;5052771;28;20036;-78
2021/11/12 06:09:26;;;;;;;12.93;9.68;;;11.00;74.40;;;;;;5053047;28;20068;-78
2021/11/12 06:11:53;;;;;;;10.43;8.40;;;10.90;74.40;;;;;;5052746;28;20064;-78
2021/11/12 06:14:21;;;;;;;12.88;9.57;;;10.90;74.30;;;;;;5052620;28;20361;-77
2021/11/12 06:16:47;;;;;;;11.18;8.07;;;10.90;74.30;;;;;;5053848;28;20032;-77
2021/11/12 06:19:14;;;;;;;11.25;8.82;;;10.90;74.30;;;;;;5052397;28;20512;-76
2021/11/12 06:21:40;;;;;;;10.48;8.70;;;10.80;74.30;;;;;;5052753;28;20424;-78
2021/11/12 06:24:06;;;;;;;11.00;8.88;;;10.80;74.30;;;;;;5069592;28;20033;-75
2021/11/12 06:26:31;;;;;;;11.75;8.63;;;10.80;74.30;;;;;;5052715;28;20032;-76
2021/11/12 06:29:00;;;;;;;9.80;8.40;;;10.80;74.30;;;;;;5052499;28;20053;-76
2021/11/12 06:31:26;;;;;;;11.00;9.15;;;10.70;74.20;;;;;;5036644;28;20354;-76
2021/11/12 06:33:54;;;;;;;10.65;8.27;;;10.70;74.20;;;;;;5052830;28;20068;-77
2021/11/12 06:36:23;;;;;;;10.88;8.30;;;10.70;74.30;;;;;;5052413;28;20029;-76
2021/11/12 06:38:50;;;;;;;10.30;8.20;;;10.60;74.20;;;;;;5052741;28;20029;-77
2021/11/12 06:41:26;;;;;;;12.30;9.00;;;10.60;74.20;;;;;;5052363;28;20043;-80
2021/11/12 06:43:57;;;;;;;10.60;8.05;;;10.60;74.20;;;;;;5053306;28;20028;-80
2021/11/12 06:49:29;;;;;;;10.10;8.20;;;10.50;74.10;;;;;;5051993;28;20473;-77
2021/11/12 06:51:55;;;;;;;10.25;7.60;;;10.50;74.20;;;;;;5069192;28;20044;-77
2021/11/12 06:54:21;;;;;;;10.77;8.32;;;10.40;74.10;;;;;;5052251;28;20488;-76
2021/11/12 06:56:47;;;;;;;10.45;8.77;;;10.40;74.20;;;;;;5068837;28;20104;-76
2021/11/12 06:59:14;;;;;;;9.52;7.97;;;10.40;74.20;;;;;;5052071;28;20044;-76
2021/11/12 07:01:39;;;;;;;10.95;8.32;;;10.40;74.20;;;;;;5052054;28;20358;-76
2021/11/12 07:04:05;;;;;;;9.25;7.85;;;10.40;74.20;;;;;;5052148;28;20058;-79
2021/11/12 07:06:31;;;;;;;10.07;8.38;;;10.30;74.20;;;;;;5057445;28;20090;-77
2021/11/12 07:08:57;;;;;;;10.98;8.20;;;10.30;74.10;;;;;;5056192;28;20509;-77
2021/11/12 07:11:23;;;;;;;9.98;8.02;;;10.30;74.10;;;;;;5057133;28;20031;-77
2021/11/12 07:13:49;;;;;;;11.35;8.90;;;10.20;74.10;;;;;;5073559;28;20075;-78
2021/11/12 07:16:16;;;;;;;9.70;7.57;;;10.20;74.10;;;;;;5057506;28;20025;-79
2021/11/12 07:18:42;;;;;;;10.10;8.05;;;10.20;74.10;;;;;;5056146;28;20099;-77
2021/11/12 07:21:08;;;;;;;10.63;7.78;;;10.20;74.10;;;;;;5057068;28;20462;-78
2021/11/12 07:23:34;;;;;;;9.52;7.70;;;10.20;74.10;;;;;;5072510;28;20067;-77
2021/11/12 07:25:59;;;;;;;10.38;7.72;;;10.20;74.10;;;;;;5056194;28;20065;-77
2021/11/12 07:28:26;;;;;;;9.48;7.80;;;10.10;74.00;;;;;;5056499;28;20441;-78
2021/11/12 07:30:54;;;;;;;9.70;7.85;;;10.10;74.10;;;;;;5055789;28;20090;-77
2021/11/12 07:33:21;;;;;;;9.88;8.02;;;10.10;74.00;;;;;;5072063;28;20500;-78
2021/11/12 07:39:00;;;;;;;10.48;7.82;;;10.00;74.00;;;;;;5055625;28;20036;-77
2021/11/12 07:49:00;;;;;;;9.70;7.22;;;9.90;74.00;;;;;;5055669;28;20103;-77
2021/11/12 07:51:27;;;;;;;10.07;7.72;;;9.90;74.10;;;;;;5056307;28;20035;-78
2021/11/12 07:53:54;;;;;;;9.63;7.57;;;9.80;74.00;;;;;;5038593;28;20041;-79
2021/11/12 07:56:21;;;;;;;9.45;7.75;;;9.80;74.10;;;;;;5056496;28;20025;-78
2021/11/12 07:58:47;;;;;;;9.52;7.47;;;9.90;74.10;;;;;;5055772;28;20124;-79
2021/11/12 08:01:14;;;;;;;10.50;7.78;;;9.80;74.00;;;;;;5055244;28;20485;-79
2021/11/12 08:03:40;;;;;;;10.82;8.15;;;9.80;74.40;;;;;;5056656;28;20028;-79
2021/11/12 08:06:10;;;;;;;9.93;7.90;;;9.80;74.10;;;;;;5054972;28;20029;-81
2021/11/12 08:08:37;;;;;;;9.23;7.28;;;9.80;74.10;;;;;;5055039;28;20519;-79
2021/11/12 08:11:09;;;;;;;10.43;7.47;;;9.70;74.00;;;;;;5055544;28;20021;-79
2021/11/12 08:13:37;;;;;;;9.85;7.35;;;9.70;74.10;;;;;;5055438;28;20519;-78
2021/11/12 08:16:25;;;;;;;9.75;7.10;;;9.70;74.10;;;;;;5054886;28;20530;-79
2021/11/12 08:44:32;;;;;;;10.25;7.72;;;9.50;74.20;;;;;;5055860;28;20103;-78
2021/11/12 08:47:06;;;;;;;10.00;7.95;;;9.50;74.20;;;;;;5055753;28;20084;-78
2021/11/12 08:49:34;;;;;;;9.35;7.63;;;9.40;74.20;;;;;;5054669;28;20021;-79
2021/11/12 08:52:03;;;;;;;10.35;7.80;;;9.50;74.30;;;;;;5054623;28;20355;-79
2021/11/12 08:54:34;;;;;;;9.98;7.82;;;9.50;74.40;;;;;;5054647;28;20048;-79
2021/11/12 08:57:00;;;;;;;9.57;7.95;;;9.40;74.30;;;;;;5054484;28;20033;-78
2021/11/12 08:59:26;;;;;;;10.02;7.95;;;9.40;74.30;;;;;;5038252;28;20079;-78
2021/11/12 09:01:52;;;;;;;10.45;7.72;;;9.40;74.40;;;;;;5054551;28;20032;-79
2021/11/12 09:04:18;;;;;;;10.05;7.55;;;9.40;74.40;;;;;;5055370;28;20029;-79
2021/11/12 09:06:45;;;;;;;10.80;7.85;;;9.40;74.40;;;;;;5055035;28;20078;-79
2021/11/12 09:09:11;;;;;;;10.60;8.20;;;9.50;74.50;;;;;;5037739;28;20072;-81
2021/11/12 09:11:39;;;;;;;10.52;8.05;;;9.40;74.50;;;;;;5070590;28;20032;-78
2021/11/12 09:14:08;;;;;;;9.40;7.30;;;9.40;74.50;;;;;;5054876;28;20044;-78
2021/11/12 09:16:36;;;;;;;11.65;8.38;;;9.40;74.60;;;;;;5070723;28;20033;-78
2021/11/12 09:19:04;;;;;;;10.07;8.32;;;9.40;74.60;;;;;;5054351;28;20033;-78
2021/11/12 09:21:32;;;;;;;12.02;8.63;;;9.40;74.70;;;;;;5070770;28;20111;-79
2021/11/12 09:23:59;;;;;;;11.38;8.88;;;9.40;74.70;;;;;;5054814;28;20083;-79
2021/11/12 09:26:25;;;;;;;11.45;9.05;;;9.40;74.70;;;;;;5055127;28;20032;-77
2021/11/12 09:28:52;;;;;;;10.73;8.60;;;9.40;74.80;;;;;;5054706;28;20045;-79
2021/11/12 09:31:18;;;;;;;11.27;8.32;;;9.50;74.80;;;;;;5070697;28;20036;-76
2021/11/12 09:33:45;;;;;;;10.68;8.55;;;9.50;74.90;;;;;;5053427;28;20040;-78
2021/11/12 09:36:11;;;;;;;12.98;9.63;;;9.40;74.80;;;;;;5037226;28;20128;-79
2021/11/12 09:38:39;;;;;;;12.18;9.25;;;9.50;74.90;;;;;;5037366;28;20112;-78
2021/11/12 09:41:07;;;;;;;11.68;9.02;;;9.50;75.00;;;;;;5053814;28;20373;-78
2021/11/12 09:43:33;;;;;;;12.02;8.98;;;9.50;75.00;;;;;;5053321;28;20461;-77
2021/11/12 09:45:59;;;;;;;11.50;9.15;;;9.50;75.00;;;;;;5054466;28;20033;-79
2021/11/12 09:48:25;;;;;;;12.95;9.43;;;9.50;74.90;;;;;;5054943;28;20424;-78
2021/11/12 09:50:52;;;;;;;12.98;9.68;;;9.50;75.00;;;;;;5053359;28;20040;-77
2021/11/12 09:53:19;;;;;;;12.48;10.02;;;9.50;75.00;;;;;;5052914;28;20024;-78
2021/11/12 09:55:47;;;;;;;12.93;9.88;;;9.50;75.00;;;;;;5053647;28;20481;-77
2021/11/12 09:58:14;;;;;;;12.68;9.98;;;9.50;75.00;;;;;;5052930;28;20516;-77
2021/11/12 10:00:40;;;;;;;13.98;10.15;;;9.50;75.10;;;;;;5053846;28;20044;-77
2021/11/12 10:03:08;;;;;;;14.27;10.27;;;9.60;75.10;;;;;;5053182;28;20500;-78
2021/11/12 10:05:42;;;;;;;13.02;10.10;;;9.60;75.10;;;;;;5053992;28;20040;-77
2021/11/12 10:08:25;;;;;;;14.25;10.55;;;9.60;75.10;;;;;;5037145;28;20361;-77
2021/11/12 10:10:54;;;;;;;13.20;10.45;;;9.60;75.20;;;;;;5052787;28;20484;-78
2021/11/12 10:13:23;;;;;;;13.48;9.60;;;9.60;75.10;;;;;;5052665;28;20385;-78
2021/11/12 10:16:00;;;;;;;12.77;9.73;;;9.60;75.20;;;;;;5052913;28;20504;-78
2021/11/12 10:18:27;;;;;;;14.90;10.90;;;9.60;75.20;;;;;;5054181;28;20035;-77
2021/11/12 10:20:58;;;;;;;14.75;10.77;;;9.60;75.20;;;;;;5069434;28;20036;-77
2021/11/12 10:23:30;;;;;;;14.63;10.63;;;9.60;75.20;;;;;;5052990;28;20051;-78
2021/11/12 10:26:01;;;;;;;15.05;10.68;;;9.60;75.20;;;;;;5052995;28;20103;-77
2021/11/12 10:28:34;;;;;;;13.68;11.05;;;9.60;75.20;;;;;;5053042;28;20040;-77
2021/11/12 10:31:15;;;;;;;14.13;10.40;;;9.60;75.30;;;;;;5054108;28;20159;-77
2021/11/12 10:33:42;;;;;;;14.88;10.50;;;9.60;75.30;;;;;;5053832;28;20480;-77
2021/11/12 10:36:09;;;;;;;14.60;10.70;;;9.60;75.20;;;;;;5068994;28;20025;-77
2021/11/12 10:38:40;;;;;;;14.52;10.43;;;9.60;75.20;;;;;;5052358;28;20029;-77
2021/11/12 10:41:34;;;;;;;14.30;10.32;;;9.60;75.30;;;;;;5085961;28;20461;-78
2021/11/12 10:44:12;;;;;;;13.45;9.90;;;9.60;75.30;;;;;;5035294;28;20036;-78
2021/11/12 10:46:42;;;;;;;14.02;10.60;;;9.60;75.30;;;;;;5052333;28;20036;-77
2021/11/12 10:49:30;;;;;;;13.48;10.10;;;9.60;75.20;;;;;;5054331;28;20083;-77
2021/11/12 10:52:01;;;;;;;13.63;10.32;;;9.60;75.40;;;;;;5053025;28;20029;-78
2021/11/12 10:54:39;;;;;;;13.55;9.98;;;9.60;75.20;;;;;;5053013;28;20052;-77
2021/11/12 10:57:06;;;;;;;14.23;10.20;;;9.60;75.30;;;;;;5052153;28;20029;-76
2021/11/12 10:59:37;;;;;;;13.18;10.25;;;9.60;75.20;;;;;;5052956;28;20028;-79
2021/11/12 11:02:04;;;;;;;13.25;9.77;;;9.70;75.30;;;;;;5053212;28;20119;-79
2021/11/12 11:04:38;;;;;;;14.20;10.65;;;9.70;75.40;;;;;;5052691;28;20025;-79
2021/11/12 11:07:20;;;;;;;15.27;10.97;;;9.70;75.40;;;;;;5052735;28;20112;-80
2021/11/12 11:09:46;;;;;;;12.80;9.98;;;9.70;75.40;;;;;;5086229;28;20124;-79
2021/11/12 11:12:38;;;;;;;14.02;10.18;;;9.70;75.30;;;;;;5052579;28;20117;-80
2021/11/12 11:15:16;;;;;;;13.98;10.32;;;9.70;75.50;;;;;;5069459;28;20041;-80
2021/11/12 11:17:48;;;;;;;12.85;9.77;;;9.70;75.40;;;;;;5035885;28;20033;-78
2021/11/12 11:20:19;;;;;;;13.95;9.23;;;9.70;75.40;;;;;;5053522;28;20032;-79
2021/11/12 11:22:56;;;;;;;14.02;10.43;;;9.70;75.40;;;;;;5052526;28;20061;-79
2021/11/12 11:25:23;;;;;;;13.10;9.75;;;9.70;75.40;;;;;;5052632;28;20036;-79
2021/11/12 11:27:49;;;;;;;14.60;10.25;;;9.80;75.50;;;;;;5052082;28;20039;-78
2021/11/12 11:30:15;;;;;;;14.13;10.55;;;9.80;75.40;;;;;;5051992;28;20106;-80
2021/11/12 11:32:46;;;;;;;13.93;10.20;;;9.80;75.40;;;;;;5035502;28;20477;-78
2021/11/12 11:35:15;;;;;;;12.68;9.80;;;9.80;75.50;;;;;;5035670;28;20086;-78
2021/11/12 11:37:41;;;;;;;13.90;10.32;;;9.80;75.40;;;;;;5052179;28;20025;-79
2021/11/12 11:40:10;;;;;;;13.32;10.23;;;9.80;75.40;;;;;;5052306;28;20116;-79
2021/11/12 11:42:38;;;;;;;14.95;11.55;;;9.80;75.50;;;;;;5085548;28;20033;-79
2021/11/12 11:45:04;;;;;;;13.85;10.25;;;9.80;75.40;;;;;;5052040;28;20082;-78
2021/11/12 11:47:32;;;;;;;14.07;10.82;;;9.90;75.50;;;;;;5051965;28;20029;-78
2021/11/12 11:49:58;;;;;;;13.43;9.98;;;9.80;75.40;;;;;;5053328;28;20029;-78
2021/11/12 11:52:29;;;;;;;15.00;10.90;;;9.90;75.50;;;;;;5056449;28;20055;-77
2021/11/12 11:54:56;;;;;;;14.75;11.07;;;9.90;75.50;;;;;;5055681;28;20107;-78
2021/11/12 11:57:27;;;;;;;14.73;10.15;;;9.90;75.40;;;;;;5055501;28;20029;-77
2021/11/12 12:00:22;;;;;;;15.45;11.15;;;9.90;75.40;;;;;;5056135;28;20133;-77
2021/11/12 12:03:08;;;;;;;13.82;10.25;;;9.90;75.60;;;;;;5089005;28;20027;-79
2021/11/12 12:06:07;;;;;;;14.98;10.60;;;10.00;75.40;;;;;;5054847;28;20033;-77
2021/11/12 12:08:34;;;;;;;12.90;9.35;;;10.00;75.60;;;;;;5056666;28;20101;-76
2021/11/12 12:11:18;;;;;;;12.10;9.45;;;10.00;75.40;;;;;;5056786;28;20028;-76
2021/11/12 12:13:44;;;;;;;15.15;11.02;;;10.00;75.60;;;;;;5071856;28;20064;-76
2021/11/12 12:16:09;;;;;;;14.25;10.35;;;10.00;75.40;;;;;;5055503;28;20194;-77
2021/11/12 12:18:46;;;;;;;12.93;10.07;;;10.10;75.40;;;;;;5055057;28;20096;-77
2021/11/12 12:21:27;;;;;;;14.27;10.70;;;10.10;75.50;;;;;;5072717;28;20090;-79
2021/11/12 13:25:12;;;;;;;13.63;10.27;;;10.60;75.30;;;;;;5055480;28;20112;-79
2021/11/12 13:27:39;;;;;;;14.07;10.43;;;10.70;75.40;;;;;;5053618;28;20032;-80
2021/11/12 13:30:06;;;;;;;14.43;11.00;;;10.70;75.30;;;;;;5071037;28;20049;-79
2021/11/12 13:32:40;;;;;;;14.15;10.45;;;10.70;75.30;;;;;;5070196;28;20061;-79
2021/11/12 13:35:06;;;;;;;14.05;10.23;;;10.70;75.30;;;;;;5054612;28;20116;-79
2021/11/12 13:37:32;;;;;;;14.35;10.82;;;10.80;75.20;;;;;;5036890;28;20444;-79
2021/11/12 13:40:08;;;;;;;15.25;11.18;;;10.80;75.20;;;;;;5036856;28;20477;-80
2021/11/12 13:42:39;;;;;;;14.70;10.98;;;10.80;75.20;;;;;;5054380;28;20083;-79
2021/11/12 13:45:20;;;;;;;15.00;11.57;;;10.80;75.10;;;;;;5054426;28;20032;-79
2021/11/12 13:47:47;;;;;;;15.10;10.90;;;10.90;75.20;;;;;;5055157;28;20029;-79
2021/11/12 13:50:17;;;;;;;15.48;11.85;;;10.90;75.10;;;;;;5053683;28;20043;-78
2021/11/12 13:52:42;;;;;;;15.88;11.45;;;10.90;75.10;;;;;;5086703;28;20033;-78
2021/11/12 13:55:15;;;;;;;15.27;11.18;;;10.90;75.10;;;;;;5070069;28;20478;-79
2021/11/12 13:58:04;;;;;;;15.07;10.98;;;10.90;75.10;;;;;;5036282;28;20029;-78
2021/11/12 14:00:30;;;;;;;15.10;10.43;;;11.00;75.20;;;;;;5053550;28;20062;-79
2021/11/12 14:03:00;;;;;;;16.33;11.68;;;11.00;75.00;;;;;;5036498;28;20033;-79
2021/11/12 14:05:27;;;;;;;15.85;11.57;;;11.00;75.10;;;;;;5053095;28;20114;-78
2021/11/12 14:08:02;;;;;;;14.60;11.10;;;11.00;75.00;;;;;;5036519;28;20029;-80
2021/11/12 14:10:38;;;;;;;13.57;10.60;;;11.00;75.00;;;;;;5054097;28;20048;-80
2021/11/12 14:13:06;;;;;;;15.18;11.40;;;11.00;75.00;;;;;;5036229;28;20409;-79
2021/11/12 14:21:32;;;;;;;15.18;11.02;;;11.10;74.90;;;;;;5053587;28;20033;-78
2021/11/12 14:26:33;;;;;;;13.75;10.52;;;11.10;74.90;;;;;;5054106;28;20060;-79
2021/11/12 14:29:19;;;;;;;13.20;11.02;;;11.10;74.90;;;;;;5053482;28;20045;-78
2021/11/12 14:31:59;;;;;;;14.65;11.52;;;11.10;74.80;;;;;;5053974;28;20485;-78
2021/11/12 14:34:39;;;;;;;13.57;10.15;;;11.10;74.80;;;;;;5054999;28;20090;-79
2021/11/12 14:37:11;;;;;;;14.68;10.63;;;11.10;74.80;;;;;;5054602;28;20036;-78
2021/11/12 14:45:03;;;;;;;15.60;11.45;;;11.10;74.80;;;;;;5054070;28;20056;-79
2021/11/12 14:53:18;;;;;;;15.75;11.13;;;11.10;74.80;;;;;;5054118;28;20104;-78
2021/11/12 14:55:46;;;;;;;14.57;10.63;;;11.20;74.70;;;;;;5054009;28;20405;-80
2021/11/12 14:58:15;;;;;;;13.82;10.70;;;11.20;74.70;;;;;;5053648;28;20112;-78
2021/11/12 15:00:41;;;;;;;16.50;11.02;;;11.20;74.70;;;;;;5068582;28;20029;-80
2021/11/12 15:03:07;;;;;;;15.85;11.35;;;11.20;74.70;;;;;;5035859;28;20369;-78
2021/11/12 15:05:34;;;;;;;16.08;11.20;;;11.20;74.80;;;;;;5052532;28;20124;-79
2021/11/12 15:08:17;;;;;;;16.80;11.38;;;11.20;74.60;;;;;;5052973;28;20056;-79
2021/11/12 15:10:45;;;;;;;15.40;11.13;;;11.20;74.60;;;;;;5055031;28;20060;-78
2021/11/12 15:13:11;;;;;;;15.85;11.52;;;11.20;74.60;;;;;;5068834;28;20466;-79
2021/11/12 15:15:36;;;;;;;15.20;11.13;;;11.20;74.60;;;;;;5053060;28;20040;-79
2021/11/12 15:18:06;;;;;;;14.63;11.25;;;11.20;74.60;;;;;;5035515;28;20469;-77
2021/11/12 15:20:35;;;;;;;15.80;11.73;;;11.20;74.60;;;;;;5051844;28;20029;-79
2021/11/12 15:25:50;;;;;;;15.65;11.90;;;11.20;74.50;;;;;;5053416;28;20040;-78
2021/11/12 15:31:18;;;;;;;16.40;11.73;;;11.20;74.50;;;;;;5057893;28;20376;-79
2021/11/12 15:33:38;;;;;;;15.88;11.52;;;11.20;74.50;;;;;;5057912;28;20053;-78
2021/11/12 15:36:08;;;;;;;15.15;11.45;;;11.20;74.50;;;;;;5055765;28;20037;-78
2021/11/12 15:38:52;;;;;;;14.93;10.95;;;11.20;74.50;;;;;;5057072;28;20496;-78
2021/11/12 15:43:57;;;;;;;;;;;11.20;74.40;;;;;;5056100;28;20505;-78
2021/11/12 15:46:26;;;;;;;15.38;10.68;;;11.20;74.40;;;;;;5055970;28;19913;-79
2021/11/12 15:48:52;;;;;;;13.93;10.55;;;11.20;74.30;;;;;;5056814;28;20082;-78
2021/11/12 15:54:36;;;;;;;16.08;11.60;;;11.10;74.40;;;;;;5054283;28;20045;-76
2021/11/12 16:12:58;;;;;;;13.93;10.82;;;11.10;74.30;;;;;;5054809;28;20044;-78
2021/11/12 16:15:44;;;;;;;14.70;11.38;;;11.10;74.30;;;;;;5054871;28;20045;-77
2021/11/12 16:25:45;;;;;;;14.60;11.13;;;11.10;74.30;;;;;;5055916;28;19905;-77
2021/11/12 16:28:18;;;;;;;14.32;10.60;;;11.10;74.20;;;;;;5071907;28;20124;-77
2021/11/12 16:30:49;;;;;;;14.88;11.23;;;11.00;74.30;;;;;;5056650;28;20053;-76
2021/11/12 16:33:15;;;;;;;14.57;10.50;;;11.00;74.30;;;;;;5071738;28;20025;-77
2021/11/12 16:35:43;;;;;;;14.70;11.15;;;11.10;74.30;;;;;;5038775;28;20412;-77
2021/11/12 16:38:22;;;;;;;15.63;12.48;;;11.00;74.30;;;;;;5053151;28;20488;-80
2021/11/12 16:40:54;;;;;;;13.18;10.68;;;11.00;74.30;;;;;;5056187;28;20065;-78
2021/11/12 16:43:30;;;;;;;15.82;11.48;;;11.00;74.20;;;;;;5038708;28;20087;-78
2021/11/12 17:09:26;;;;;;;13.38;10.05;;;11.00;74.20;;;;;;5053830;28;20032;-77
2021/11/12 17:46:55;;;;;;;13.32;9.80;;;10.80;74.20;;;;;;5054268;28;20033;-77
2021/11/12 17:52:09;;;;;;;13.68;9.57;;;10.80;74.20;;;;;;5054260;28;20173;-78
2021/11/12 18:03:17;;;;;;;12.30;9.27;;;10.70;74.20;;;;;;5055248;28;20048;-78
2021/11/12 18:08:54;;;;;;;11.85;9.13;;;10.70;74.20;;;;;;5054585;28;20068;-77
2021/11/12 18:14:09;;;;;;;12.15;8.68;;;10.70;74.20;;;;;;5054649;28;20458;-78
2021/11/12 21:46:03;;;;;;;6.63;4.55;;;11.10;74.90;;;;;;5053376;28;20033;-81
2021/11/12 21:48:17;;;;;;;6.35;4.70;;;11.10;74.90;;;;;;5051622;28;20041;-83
2021/11/12 21:50:43;;;;;;;6.22;4.40;;;11.10;74.90;;;;;;5053118;28;20028;-80
2021/11/12 21:53:09;;;;;;;7.45;5.80;;;11.10;74.90;;;;;;5053447;28;20037;-79
2021/11/12 21:55:35;;;;;;;7.47;5.38;;;11.10;75.00;;;;;;5053327;28;20033;-78
2021/11/12 21:58:02;;;;;;;8.10;5.60;;;11.10;74.90;;;;;;5069975;28;20033;-79
2021/11/12 22:00:29;;;;;;;6.47;4.45;;;11.10;74.90;;;;;;5053583;28;20474;-77
2021/11/12 22:02:56;;;;;;;7.00;4.65;;;11.10;74.90;;;;;;5053585;28;20127;-79
2021/11/12 22:05:25;;;;;;;6.97;5.03;;;11.20;74.90;;;;;;5053482;28;20441;-78
2021/11/12 22:07:51;;;;;;;7.13;5.00;;;11.20;74.90;;;;;;5069644;28;20025;-79
2021/11/12 22:10:17;;;;;;;6.60;4.78;;;11.20;74.90;;;;;;5053568;28;20029;-79
2021/11/12 22:12:44;;;;;;;6.65;4.97;;;11.20;74.90;;;;;;5069943;28;20033;-79
2021/11/12 22:15:10;;;;;;;6.68;4.95;;;11.20;74.80;;;;;;5054170;28;20040;-78
2021/11/12 22:17:36;;;;;;;7.13;5.07;;;11.20;74.80;;;;;;5054177;28;20049;-79
2021/11/12 22:20:04;;;;;;;7.15;5.03;;;11.20;74.80;;;;;;5037611;28;20041;-78
2021/11/12 22:22:31;;;;;;;6.15;4.50;;;11.20;74.80;;;;;;5051776;28;20436;-78
2021/11/12 22:24:57;;;;;;;6.85;4.93;;;11.20;74.80;;;;;;5052305;28;20123;-78
2021/11/12 22:27:27;;;;;;;7.15;5.10;;;11.20;74.80;;;;;;5037104;28;20087;-79
2021/11/12 22:29:53;;;;;;;7.07;5.22;;;11.30;74.80;;;;;;5051946;28;20060;-78
2021/11/12 22:32:21;;;;;;;6.40;4.80;;;11.20;74.80;;;;;;5069197;28;20397;-78
2021/11/12 22:34:49;;;;;;;7.60;5.28;;;11.30;74.90;;;;;;5052729;28;20040;-78
2021/11/12 22:37:16;;;;;;;6.75;4.80;;;11.30;74.90;;;;;;5052646;28;20123;-78
2021/11/12 22:39:43;;;;;;;6.38;4.82;;;11.30;74.90;;;;;;5036314;28;20025;-78
2021/11/12 22:42:10;;;;;;;7.18;5.20;;;11.30;74.90;;;;;;5052257;28;20533;-79
2021/11/12 22:44:35;;;;;;;7.50;5.60;;;11.30;74.90;;;;;;5053613;28;20029;-78
2021/11/12 22:47:02;;;;;;;7.32;5.60;;;11.30;74.80;;;;;;5052034;28;20495;-79
2021/11/12 22:49:28;;;;;;;7.28;5.03;;;11.30;74.90;;;;;;5053164;28;20024;-79
2021/11/12 22:51:54;;;;;;;7.30;4.85;;;11.30;74.80;;;;;;5052537;28;20504;-79